Terminal Aerodrome Forecast
Issued by NWS Wilmington, NC

Current Version | Previous Version | Graphics & Text | Print | Product List | Glossary Off
Versions: 1 2 3 4 5 6 7 8 9 10 11 12 13 14 15 16 17

258
FTUS42 KILM 241120
TAFILM
TAF
KILM 241120Z 2412/2512 10010KT 3SM SHRA OVC012
     FM241500 13010G15KT P6SM OVC015
      TEMPO 2415/2419 1SM +TSRA OVC004CB
     FM242100 11012G22KT 2SM +SHRA OVC008
     FM250700 15010G15KT 3SM -SHRA BKN010
     FM250900 19010KT P6SM BKN015=

USA.gov is the U.S. government's official web portal to all federal, state and local government web resources and services.